Portada
METAR-TAF:

METAR-TAF

Aeroports :

Diourbel, Senegal

latitud: 14-39N, longitud: 016-14W, altitud: 7 m

Observació

L'informe es va fer fa 47 minuts, a les 21:00 UTC
Vent calma
Temperatura 25°C
Humitat 41%
Pressió 1012 hPa
Visibilitat: 8000 m

METAR: GOOD 132100Z 00000KT 8000 NSC 25/11 Q1012

Hora: 21:47 (21:47 UTC)


TAF: manca

Observacions i pronòstics meteorològics de més de 4000 aeroports (METAR i TAF).

Les estacions disponibles són els punts grocs i vermells al mapa.

Posi el ratolí al punt desitjat per veure el nom de l'estació.

Feu clic per veure les observacions i els pronòstics meteorològics.

Per canviar el mapa: feu clic els botons verds amb una creu de color negre per apropar; al botó verd amb un guió per allunyar la imatge; o en les fletxes verdes per a mapes adjacents.


METAR-TAF: